Georgia — WCZ9212 — position and weather

sailwx.info

Track history (hours):
 
Tides and Currents Weather Stations Pressure Air Temp Water Temp Dewpoint Dewpoint Depression Visibility Wind Speed Wind Dir Waves Ship Positions

Georgia

Owner: CRESCENT TOWING & SALVAGE CO INC, NEW ORLEANS, LA. More information available from US FCC via Universal Licensing System and Coast Guard Vessel Documentation Center.

Last reported at 2018-Apr-22 14:00 UTC. Time now 2018-Apr-22 14:13 UTC.
Position N 32°05' W 081°06'.

Length 30 m; draft 3.5 m.

Type: Tug. MMSI: 367368460.

Date/timePositionNaut miles runAvg speedWind from/ knotsBaromVisibWave heightAir tempDewpointWater temp
2018-Apr-22 14:00N 32°05' W 081°06'2 4.0
2018-Apr-22 13:30N 32°07' W 081°07'1 2.3
2018-Apr-22 13:00N 32°06' W 081°07'2 3.1
2018-Apr-22 12:30N 32°05' W 081°05'1 2.1
2018-Apr-22 12:00N 32°05' W 081°04'0 0.0
2018-Apr-22 11:30N 32°05' W 081°04'0 0.0
2018-Apr-22 11:00N 32°05' W 081°04'1 1.2
2018-Apr-22 10:30N 32°05' W 081°05'1 2.9
2018-Apr-22 10:00N 32°05' W 081°06'2 3.0
2018-Apr-22 09:30N 32°07' W 081°07'1 2.2
2018-Apr-22 09:00N 32°06' W 081°06'0 0.9
2018-Apr-22 08:30N 32°05' W 081°06'0 0.0
2018-Apr-22 08:00N 32°05' W 081°06'0 0.0
2018-Apr-22 07:30N 32°05' W 081°06'0 0.0
2018-Apr-22 07:00N 32°05' W 081°06'2 4.9
2018-Apr-22 06:30N 32°07' W 081°08'0 0.2
2018-Apr-22 06:00N 32°07' W 081°08'3 5.1
2018-Apr-22 05:30N 32°05' W 081°06'0 0.0
2018-Apr-22 05:00N 32°05' W 081°06'0 0.0
2018-Apr-22 04:30N 32°05' W 081°06'0 0.0
2018-Apr-22 04:00N 32°05' W 081°06'0 0.0
2018-Apr-22 03:30N 32°05' W 081°06'0 0.0
2018-Apr-22 03:00N 32°05' W 081°06'0 0.0
2018-Apr-22 02:30N 32°05' W 081°06'3 5.4
2018-Apr-22 01:59N 32°08' W 081°08'0 0.1
2018-Apr-22 01:30N 32°08' W 081°08'1 2.0
2018-Apr-22 01:01N 32°07' W 081°07'4 7.0
2018-Apr-22 00:30N 32°05' W 081°04'0 0.2
2018-Apr-22 00:00N 32°05' W 081°04'0 0.0
2018-Apr-21 23:30N 32°05' W 081°04'0 0.0
2018-Apr-21 23:01N 32°05' W 081°04'0 0.0
2018-Apr-21 22:30N 32°05' W 081°04'0 0.0
2018-Apr-21 22:00N 32°05' W 081°04'0 0.0
2018-Apr-21 21:30N 32°05' W 081°04'0 0.4
2018-Apr-21 21:00N 32°05' W 081°04'2 4.3
2018-Apr-21 20:30N 32°06' W 081°06'1 1.1
2018-Apr-21 20:00N 32°05' W 081°06'2 3.3
2018-Apr-21 19:30N 32°05' W 081°04'1 2.9
2018-Apr-21 19:00N 32°05' W 081°06'3 7.0
2018-Apr-21 18:31N 32°08' W 081°08'1 1.7
2018-Apr-21 18:00N 32°07' W 081°08'0 0.0
2018-Apr-21 17:30N 32°07' W 081°08'0 0.0
2018-Apr-21 17:00N 32°07' W 081°08'1 1.1
2018-Apr-21 16:30N 32°08' W 081°08'0 0.8
2018-Apr-21 16:00N 32°07' W 081°08'0 0.1
2018-Apr-21 15:30N 32°07' W 081°08'0 0.0
2018-Apr-21 14:58N 32°07' W 081°08'0 1.0
2018-Apr-21 14:30N 32°07' W 081°08'4 7.4
2018-Apr-21 14:00N 32°05' W 081°04'0 0.0
2018-Apr-21 13:31N 32°05' W 081°04'0 0.0
2018-Apr-21 13:00N 32°05' W 081°04'0 0.0
2018-Apr-21 12:30N 32°05' W 081°04'0 0.0
2018-Apr-21 12:00N 32°05' W 081°04'0 0.0
2018-Apr-21 11:30N 32°05' W 081°04'0 0.0
2018-Apr-21 11:00N 32°05' W 081°04'0 0.0
2018-Apr-21 10:31N 32°05' W 081°04'0 0.0
2018-Apr-21 10:01N 32°05' W 081°04'0 0.0
2018-Apr-21 09:30N 32°05' W 081°04'0 0.0
2018-Apr-21 09:00N 32°05' W 081°04'0 0.0
2018-Apr-21 08:30N 32°05' W 081°04'0 0.0
2018-Apr-21 08:00N 32°05' W 081°04'0 0.0
2018-Apr-21 07:30N 32°05' W 081°04'0 0.0
2018-Apr-21 07:00N 32°05' W 081°04'0 0.0
2018-Apr-21 06:30N 32°05' W 081°04'0 0.0
2018-Apr-21 06:00N 32°05' W 081°04'0 0.0
2018-Apr-21 05:30N 32°05' W 081°04'0 0.0
2018-Apr-21 05:00N 32°05' W 081°04'0 0.0
2018-Apr-21 04:30N 32°05' W 081°04'0 0.0
2018-Apr-21 04:00N 32°05' W 081°04'3 5.1
2018-Apr-21 03:30N 32°06' W 081°07'2 4.6
2018-Apr-21 02:58N 32°08' W 081°08'0 0.4
2018-Apr-21 02:30N 32°08' W 081°09'0 0.0
2018-Apr-21 02:00N 32°08' W 081°09'0 0.0
2018-Apr-21 01:28N 32°08' W 081°09'1 1.2
2018-Apr-21 01:00N 32°08' W 081°08'3 5.9
2018-Apr-21 00:30N 32°05' W 081°06'0 0.5
2018-Apr-21 00:00N 32°05' W 081°06'0 0.0
2018-Apr-20 23:31N 32°05' W 081°06'3 5.1
2018-Apr-20 23:00N 32°07' W 081°08'0 0.0
2018-Apr-20 22:30N 32°07' W 081°08'2 4.4
2018-Apr-20 22:00N 32°05' W 081°06'2 3.7
2018-Apr-20 21:31N 32°05' W 081°04'0 0.0
2018-Apr-20 21:00N 32°05' W 081°04'0 0.0
2018-Apr-20 20:30N 32°05' W 081°04'0 0.0
2018-Apr-20 20:00N 32°05' W 081°04'0 0.0
2018-Apr-20 19:31N 32°05' W 081°04'0 0.0
2018-Apr-20 19:00N 32°05' W 081°04'0 0.0
2018-Apr-20 18:30N 32°05' W 081°04'0 0.0
2018-Apr-20 18:00N 32°05' W 081°04'0 0.0
2018-Apr-20 17:31N 32°05' W 081°04'0 0.0
2018-Apr-20 17:00N 32°05' W 081°04'0 0.0
2018-Apr-20 16:30N 32°05' W 081°04'0 0.0
2018-Apr-20 16:00N 32°05' W 081°04'0 0.0
2018-Apr-20 15:30N 32°05' W 081°04'0 0.0
2018-Apr-20 15:00N 32°05' W 081°04'0 0.0
2018-Apr-20 14:30N 32°05' W 081°04'0 0.0
2018-Apr-20 14:00N 32°05' W 081°04'0 0.0
2018-Apr-20 13:30N 32°05' W 081°04'0 0.0
2018-Apr-20 13:00N 32°05' W 081°04'0 0.0
2018-Apr-20 12:30N 32°05' W 081°04'0 0.0
2018-Apr-20 12:00N 32°05' W 081°04'1 1.5
2018-Apr-20 11:30N 32°05' W 081°05'2 4.6
2018-Apr-20 11:00N 32°06' W 081°07'1 2.2
2018-Apr-20 10:30N 32°05' W 081°06'0 0.0
2018-Apr-20 10:00N 32°05' W 081°06'0 0.1
2018-Apr-20 09:30N 32°05' W 081°06'2 3.8
2018-Apr-20 09:00N 32°05' W 081°04'0 0.0
2018-Apr-20 08:30N 32°05' W 081°04'0 0.0
2018-Apr-20 08:00N 32°05' W 081°04'0 0.0
2018-Apr-20 07:30N 32°05' W 081°04'0 0.0
2018-Apr-20 07:00N 32°05' W 081°04'0 0.0
2018-Apr-20 06:30N 32°05' W 081°04'0 0.0
2018-Apr-20 06:00N 32°05' W 081°04'0 0.0
2018-Apr-20 05:30N 32°05' W 081°04'0 0.0
2018-Apr-20 05:00N 32°05' W 081°04'0 0.0
2018-Apr-20 04:28N 32°05' W 081°04'0 0.0
2018-Apr-20 04:00N 32°05' W 081°04'0 0.0
2018-Apr-20 03:30N 32°05' W 081°04'0 0.0
2018-Apr-20 03:00N 32°05' W 081°04'0 0.0
2018-Apr-20 02:30N 32°05' W 081°04'0 0.1
2018-Apr-20 02:00N 32°05' W 081°04'3 5.3
2018-Apr-20 01:30N 32°06' W 081°07'0 0.0
2018-Apr-20 01:00N 32°06' W 081°07'0 0.1
2018-Apr-20 00:30N 32°06' W 081°07'2 3.8
2018-Apr-20 00:00N 32°07' W 081°08'0 0.7
2018-Apr-19 23:30N 32°07' W 081°08'0 0.9
2018-Apr-19 23:00N 32°08' W 081°08'0 1.0
2018-Apr-19 22:30N 32°08' W 081°08'0 0.2
2018-Apr-19 22:00N 32°08' W 081°09'3 5.1
2018-Apr-19 21:30N 32°06' W 081°07'3 5.2
2018-Apr-19 21:00N 32°05' W 081°04'0 0.0
2018-Apr-19 20:30N 32°05' W 081°04'0 0.0
2018-Apr-19 20:00N 32°05' W 081°04'0 0.0
2018-Apr-19 19:30N 32°05' W 081°04'0 0.0
2018-Apr-19 19:00N 32°05' W 081°04'0 0.0
2018-Apr-19 18:30N 32°05' W 081°04'0 0.0
2018-Apr-19 18:00N 32°05' W 081°04'0 0.0
2018-Apr-19 17:30N 32°05' W 081°04'0 0.0
2018-Apr-19 17:00N 32°05' W 081°04'0 0.0
2018-Apr-19 16:30N 32°05' W 081°04'0 0.0
2018-Apr-19 16:00N 32°05' W 081°04'0 0.0
2018-Apr-19 15:30N 32°05' W 081°04'0 0.0
2018-Apr-19 15:00N 32°05' W 081°04'0 0.0
2018-Apr-19 14:30N 32°05' W 081°04'0 0.0
2018-Apr-19 14:00N 32°05' W 081°04'0 0.0
2018-Apr-19 13:29N 32°05' W 081°04'0 0.0
2018-Apr-19 12:52N 32°05' W 081°04'0 0.0
2018-Apr-19 12:30N 32°05' W 081°04'0 0.0
2018-Apr-19 12:00N 32°05' W 081°04'0 0.0
2018-Apr-19 11:30N 32°05' W 081°04'0 0.0
2018-Apr-19 11:00N 32°05' W 081°04'0 0.0
2018-Apr-19 10:30N 32°05' W 081°04'0 0.0
2018-Apr-19 10:00N 32°05' W 081°04'0 0.0
2018-Apr-19 09:31N 32°05' W 081°04'0 0.0
2018-Apr-19 09:00N 32°05' W 081°04'0 0.0
2018-Apr-19 08:30N 32°05' W 081°04'0 0.0
2018-Apr-19 08:00N 32°05' W 081°04'0 0.0
2018-Apr-19 07:30N 32°05' W 081°04'0 0.0
2018-Apr-19 07:00N 32°05' W 081°04'0 0.0
2018-Apr-19 06:30N 32°05' W 081°04'0 0.0
2018-Apr-19 06:00N 32°05' W 081°04'0 0.0
2018-Apr-19 05:30N 32°05' W 081°04'0 0.0
2018-Apr-19 04:59N 32°05' W 081°04'0 0.0
2018-Apr-19 04:29N 32°05' W 081°04'0 0.0
2018-Apr-19 03:58N 32°05' W 081°04'0 0.0
2018-Apr-19 03:30N 32°05' W 081°04'0 0.2
2018-Apr-19 03:00N 32°05' W 081°04'3 5.4
2018-Apr-19 02:31N 32°06' W 081°07'0 0.5
2018-Apr-19 02:00N 32°06' W 081°07'1 1.8
2018-Apr-19 01:30N 32°06' W 081°06'1 1.2
2018-Apr-19 01:00N 32°05' W 081°06'0 0.0
2018-Apr-19 00:30N 32°05' W 081°06'0 0.8
2018-Apr-18 23:59N 32°05' W 081°06'0 0.3
2018-Apr-18 23:30N 32°05' W 081°06'1 1.6
2018-Apr-18 23:00N 32°05' W 081°05'1 1.3
2018-Apr-18 22:30N 32°05' W 081°06'0 0.0
2018-Apr-18 22:01N 32°05' W 081°06'1 1.9
2018-Apr-18 21:30N 32°05' W 081°05'1 0.3
2018-Apr-18 18:07N 32°05' W 081°04'0 0.0
2018-Apr-18 18:00N 32°05' W 081°04'1 2.0
2018-Apr-18 17:30N 32°05' W 081°05'4 7.7
2018-Apr-18 17:00N 32°08' W 081°08'0 0.2
2018-Apr-18 16:30N 32°08' W 081°08'1 2.7
2018-Apr-18 16:00N 32°07' W 081°07'0 0.6
2018-Apr-18 15:30N 32°07' W 081°08'0 0.8
2018-Apr-18 15:00N 32°07' W 081°08'1 1.4
2018-Apr-18 14:30N 32°07' W 081°07'0 0.0
2018-Apr-18 14:00N 32°07' W 081°07'0 0.0
2018-Apr-18 13:30N 32°07' W 081°07'0 0.0
2018-Apr-18 13:00N 32°07' W 081°07'0 0.0
2018-Apr-18 12:30N 32°07' W 081°07'1 2.0
2018-Apr-18 12:00N 32°07' W 081°08'0 0.7
2018-Apr-18 11:30N 32°08' W 081°08'3 6.4
2018-Apr-18 11:00N 32°05' W 081°06'0 0.5
2018-Apr-18 10:30N 32°05' W 081°06'2 3.4
2018-Apr-18 10:00N 32°07' W 081°07'2 3.9
2018-Apr-18 09:30N 32°05' W 081°06'0 0.2
2018-Apr-18 09:00N 32°05' W 081°06'0 0.7
2018-Apr-18 08:30N 32°06' W 081°06'3 5.5
2018-Apr-18 08:00N 32°08' W 081°08'1 2.4
2018-Apr-18 07:30N 32°07' W 081°07'3 6.7
2018-Apr-18 07:00N 32°05' W 081°04'0 0.6
2018-Apr-18 06:30N 32°05' W 081°04'0 0.0
2018-Apr-18 06:00N 32°05' W 081°04'0 0.0
2018-Apr-18 05:30N 32°05' W 081°04'0 0.0
2018-Apr-18 05:00N 32°05' W 081°04'0 0.0
2018-Apr-18 04:30N 32°05' W 081°04'0 0.0
2018-Apr-18 04:00N 32°05' W 081°04'0 0.0
2018-Apr-18 03:30N 32°05' W 081°04'0 0.0
2018-Apr-18 02:51N 32°05' W 081°04'0 0.0
2018-Apr-18 02:30N 32°05' W 081°04'2 3.9
2018-Apr-18 02:00N 32°06' W 081°06'0 0.3
2018-Apr-18 01:30N 32°06' W 081°06'0 0.8
2018-Apr-18 01:00N 32°05' W 081°06'2 3.6
2018-Apr-18 00:30N 32°05' W 081°04'0 0.0
2018-Apr-18 00:00N 32°05' W 081°04'0 0.0
2018-Apr-17 23:30N 32°05' W 081°04'0 0.0
2018-Apr-17 23:00N 32°05' W 081°04'0 0.0
2018-Apr-17 22:30N 32°05' W 081°04'0 0.0
2018-Apr-17 22:00N 32°05' W 081°04'0 0.0
2018-Apr-17 21:30N 32°05' W 081°04'0 0.0
2018-Apr-17 21:00N 32°05' W 081°04'0 0.0
2018-Apr-17 20:30N 32°05' W 081°04'0 0.0
2018-Apr-17 20:00N 32°05' W 081°04'0 0.0
2018-Apr-17 19:30N 32°05' W 081°04'0 0.0
2018-Apr-17 19:00N 32°05' W 081°04'0 0.0
2018-Apr-17 18:30N 32°05' W 081°04'0 0.0
2018-Apr-17 18:00N 32°05' W 081°04'1 2.5
2018-Apr-17 17:30N 32°05' W 081°05'1 1.2
2018-Apr-17 17:00N 32°05' W 081°06'0 0.1
2018-Apr-17 16:30N 32°05' W 081°06'1 2.5
2018-Apr-17 16:00N 32°06' W 081°07'1 2.2
2018-Apr-17 15:29N 32°07' W 081°08'1 2.8
2018-Apr-17 15:00N 32°06' W 081°07'3 5.3
2018-Apr-17 14:28N 32°05' W 081°04'0 0.0
2018-Apr-17 14:00N 32°05' W 081°04'0 0.0
2018-Apr-17 13:30N 32°05' W 081°04'0 0.0
2018-Apr-17 13:00N 32°05' W 081°04'0 0.0
2018-Apr-17 12:30N 32°05' W 081°04'0 0.0
2018-Apr-17 12:00N 32°05' W 081°04'0 0.0
2018-Apr-17 11:30N 32°05' W 081°04'0 0.0
2018-Apr-17 11:00N 32°05' W 081°04'0 0.0
2018-Apr-17 10:30N 32°05' W 081°04'0 0.0
2018-Apr-17 10:00N 32°05' W 081°04'0 0.0
2018-Apr-17 09:30N 32°05' W 081°04'0 0.0
2018-Apr-17 09:00N 32°05' W 081°04'0 0.0
2018-Apr-17 08:30N 32°05' W 081°04'0 0.0
2018-Apr-17 08:00N 32°05' W 081°04'0 0.0
2018-Apr-17 07:30N 32°05' W 081°04'0 0.0
2018-Apr-17 07:00N 32°05' W 081°04'0 0.0
2018-Apr-17 06:30N 32°05' W 081°04'0 0.0
2018-Apr-17 06:00N 32°05' W 081°04'0 0.0
2018-Apr-17 05:30N 32°05' W 081°04'0 0.0
2018-Apr-17 05:00N 32°05' W 081°04'0 0.0
2018-Apr-17 04:30N 32°05' W 081°04'0 0.0
2018-Apr-17 04:00N 32°05' W 081°04'0 0.0
2018-Apr-17 03:30N 32°05' W 081°04'0 0.0
2018-Apr-17 03:00N 32°05' W 081°04'0 0.0
2018-Apr-17 02:30N 32°05' W 081°04'1 2.3
2018-Apr-17 02:00N 32°05' W 081°05'4 8.1
2018-Apr-17 01:30N 32°08' W 081°08'0 0.1
2018-Apr-17 01:00N 32°08' W 081°08'1 2.7
2018-Apr-17 00:30N 32°07' W 081°08'3 6.5
2018-Apr-17 00:00N 32°05' W 081°05'1 1.1
2018-Apr-16 23:30N 32°05' W 081°04'0 0.0
2018-Apr-16 23:00N 32°05' W 081°04'0 0.0
2018-Apr-16 22:30N 32°05' W 081°04'0 0.0
2018-Apr-16 22:00N 32°05' W 081°04'0 0.0
2018-Apr-16 21:30N 32°05' W 081°04'0 0.0
2018-Apr-16 21:00N 32°05' W 081°04'0 0.0
2018-Apr-16 20:30N 32°05' W 081°04'0 0.0
2018-Apr-16 20:00N 32°05' W 081°04'0 0.0
2018-Apr-16 19:30N 32°05' W 081°04'0 0.0
2018-Apr-16 19:00N 32°05' W 081°04'0 0.0
2018-Apr-16 18:30N 32°05' W 081°04'0 0.0
2018-Apr-16 18:00N 32°05' W 081°04'0 0.0
2018-Apr-16 17:30N 32°05' W 081°04'0 0.0
2018-Apr-16 17:00N 32°05' W 081°04'0 0.0
2018-Apr-16 16:30N 32°05' W 081°04'0 0.0
2018-Apr-16 15:59N 32°05' W 081°04'0 0.0
2018-Apr-16 15:30N 32°05' W 081°04'0 0.0
2018-Apr-16 15:00N 32°05' W 081°04'0 0.3
2018-Apr-16 14:31N 32°05' W 081°04'1 1.4
2018-Apr-16 13:57N 32°05' W 081°03'1 2.8
2018-Apr-16 13:30N 32°05' W 081°04'2 4.0
2018-Apr-16 13:00N 32°06' W 081°06'0 0.2
2018-Apr-16 12:30N 32°06' W 081°06'0 0.5
2018-Apr-16 12:00N 32°05' W 081°06'0 0.0
2018-Apr-16 11:21N 32°05' W 081°06'0 0.0
2018-Apr-16 10:58N 32°05' W 081°06'1 2.0
2018-Apr-16 10:27N 32°06' W 081°07'1 1.6
2018-Apr-16 10:00N 32°06' W 081°06'0 0.0
2018-Apr-16 09:31N 32°06' W 081°06'2 4.5
2018-Apr-16 09:00N 32°05' W 081°04'0 0.0
2018-Apr-16 08:30N 32°05' W 081°04'0 0.0
2018-Apr-16 08:00N 32°05' W 081°04'0 0.0
2018-Apr-16 07:30N 32°05' W 081°04'0 0.0
2018-Apr-16 07:00N 32°05' W 081°04'0 0.0
2018-Apr-16 06:28N 32°05' W 081°04'0 0.0
2018-Apr-16 06:00N 32°05' W 081°04'0 0.0
2018-Apr-16 05:30N 32°05' W 081°04'0 0.0
2018-Apr-16 05:00N 32°05' W 081°04'0 0.0
2018-Apr-16 04:30N 32°05' W 081°04'0 0.0
2018-Apr-16 03:59N 32°05' W 081°04'0 0.0
2018-Apr-16 03:30N 32°05' W 081°04'0 0.0
2018-Apr-16 03:00N 32°05' W 081°04'0 0.0
2018-Apr-16 02:30N 32°05' W 081°04'0 0.0
2018-Apr-16 02:00N 32°05' W 081°04'0 0.0
2018-Apr-16 01:30N 32°05' W 081°04'0 0.0
2018-Apr-16 01:00N 32°05' W 081°04'0 0.0
2018-Apr-16 00:28N 32°05' W 081°04'0 0.0
2018-Apr-16 00:00N 32°05' W 081°04'0 0.0
2018-Apr-15 23:30N 32°05' W 081°04'0 0.0
2018-Apr-15 23:00N 32°05' W 081°04'0 0.0
2018-Apr-15 22:30N 32°05' W 081°04'0 0.0
2018-Apr-15 22:00N 32°05' W 081°04'0 0.0
2018-Apr-15 21:31N 32°05' W 081°04'4 8.3
2018-Apr-15 21:01N 32°07' W 081°08'0 0.0
2018-Apr-15 20:30N 32°07' W 081°08'1 2.1
2018-Apr-15 20:00N 32°06' W 081°07'3 6.2
2018-Apr-15 19:30N 32°05' W 081°04'0 0.0
2018-Apr-15 19:00N 32°05' W 081°04'0 0.0
2018-Apr-15 18:30N 32°05' W 081°04'0 0.0
2018-Apr-15 18:00N 32°05' W 081°04'0 0.0
2018-Apr-15 17:30N 32°05' W 081°04'0 0.0
2018-Apr-15 17:00N 32°05' W 081°04'1 2.0
2018-Apr-15 16:30N 32°05' W 081°05'2 3.9
2018-Apr-15 16:00N 32°06' W 081°07'0 0.0
2018-Apr-15 15:30N 32°06' W 081°07'1 2.7
2018-Apr-15 15:00N 32°07' W 081°08'1 1.1
2018-Apr-15 14:31N 32°07' W 081°07'2 3.6
2018-Apr-15 14:00N 32°05' W 081°06'2 3.8
2018-Apr-15 13:30N 32°05' W 081°04'0 0.0
2018-Apr-15 13:00N 32°05' W 081°04'0 0.0
2018-Apr-15 12:30N 32°05' W 081°04'0 0.0
2018-Apr-15 12:00N 32°05' W 081°04'0 0.0
2018-Apr-15 11:30N 32°05' W 081°04'0 0.0
2018-Apr-15 10:54N 32°05' W 081°04'0 0.0
2018-Apr-15 10:30N 32°05' W 081°04'0 0.0
2018-Apr-15 10:00N 32°05' W 081°04'0 0.0
2018-Apr-15 09:29N 32°05' W 081°04'0 0.0
2018-Apr-15 09:00N 32°05' W 081°04'0 0.0
2018-Apr-15 08:30N 32°05' W 081°04'0 0.0
2018-Apr-15 08:00N 32°05' W 081°04'0 0.0
2018-Apr-15 07:30N 32°05' W 081°04'0 0.0
2018-Apr-15 07:00N 32°05' W 081°04'0 0.0
2018-Apr-15 06:30N 32°05' W 081°04'0 0.0
2018-Apr-15 06:00N 32°05' W 081°04'0 0.0
2018-Apr-15 05:30N 32°05' W 081°04'2 3.1
2018-Apr-15 05:00N 32°05' W 081°06'2 3.0
2018-Apr-15 04:30N 32°06' W 081°07'0 0.1
2018-Apr-15 04:00N 32°06' W 081°07'0 0.0
2018-Apr-15 03:30N 32°06' W 081°07'0 0.0
2018-Apr-15 03:00N 32°06' W 081°07'1 2.8
2018-Apr-15 02:30N 32°05' W 081°06'2 3.2
2018-Apr-15 02:00N 32°05' W 081°04'0 0.0
2018-Apr-15 01:30N 32°05' W 081°04'0 0.2
2018-Apr-15 01:00N 32°05' W 081°04'2 3.4
2018-Apr-15 00:30N 32°05' W 081°06'0 0.5
2018-Apr-15 00:00N 32°05' W 081°06'1 1.7
2018-Apr-14 23:31N 32°06' W 081°07'2 4.5
2018-Apr-14 23:00N 32°08' W 081°08'0 0.7
2018-Apr-14 22:30N 32°08' W 081°08'1 1.1
2018-Apr-14 22:00N 32°07' W 081°08'0 0.0
2018-Apr-14 21:30N 32°07' W 081°08'0 0.0
2018-Apr-14 21:00N 32°07' W 081°08'0 0.0
2018-Apr-14 20:30N 32°07' W 081°08'1 2.2
2018-Apr-14 20:00N 32°06' W 081°07'0 0.2
2018-Apr-14 19:30N 32°06' W 081°07'0 0.0
2018-Apr-14 18:58N 32°06' W 081°07'0 0.0
2018-Apr-14 18:29N 32°06' W 081°07'1 2.0
2018-Apr-14 18:00N 32°06' W 081°06'2 3.9
2018-Apr-14 17:30N 32°05' W 081°04'0 0.0
2018-Apr-14 17:00N 32°05' W 081°04'0 0.0
2018-Apr-14 16:30N 32°05' W 081°04'0 0.0
2018-Apr-14 16:00N 32°05' W 081°04'0 0.0
2018-Apr-14 15:30N 32°05' W 081°04'0 0.0
2018-Apr-14 15:00N 32°05' W 081°04'0 0.0
2018-Apr-14 14:30N 32°05' W 081°04'0 0.0
2018-Apr-14 14:00N 32°05' W 081°04'0 0.0
2018-Apr-14 13:30N 32°05' W 081°04'0 0.0
2018-Apr-14 13:00N 32°05' W 081°04'0 0.0
2018-Apr-14 12:30N 32°05' W 081°04'0 0.0
2018-Apr-14 12:00N 32°05' W 081°04'0 0.0
2018-Apr-14 11:30N 32°05' W 081°04'0 0.0
2018-Apr-14 11:00N 32°05' W 081°04'0 0.0
2018-Apr-14 10:30N 32°05' W 081°04'3 6.8
2018-Apr-14 10:00N 32°07' W 081°07'0 0.0
2018-Apr-14 09:30N 32°07' W 081°07'2 3.5
2018-Apr-14 09:00N 32°05' W 081°06'2 3.6
2018-Apr-14 08:30N 32°05' W 081°04'0 0.0
2018-Apr-14 07:59N 32°05' W 081°04'0 0.0
2018-Apr-14 07:30N 32°05' W 081°04'0 0.0
2018-Apr-14 07:00N 32°05' W 081°04'0 0.0
2018-Apr-14 06:30N 32°05' W 081°04'0 0.0
2018-Apr-14 06:00N 32°05' W 081°04'0 0.0
2018-Apr-14 05:30N 32°05' W 081°04'0 0.0
2018-Apr-14 04:59N 32°05' W 081°04'0 0.0
2018-Apr-14 04:30N 32°05' W 081°04'0 0.0
2018-Apr-14 04:00N 32°05' W 081°04'0 0.0
2018-Apr-14 03:30N 32°05' W 081°04'0 0.0
2018-Apr-14 03:00N 32°05' W 081°04'0 0.0
2018-Apr-14 02:30N 32°05' W 081°04'0 0.0
2018-Apr-14 02:00N 32°05' W 081°04'0 0.0
2018-Apr-14 01:30N 32°05' W 081°04'0 0.0
2018-Apr-14 01:00N 32°05' W 081°04'1 1.9
2018-Apr-14 00:30N 32°05' W 081°05'4 7.5
2018-Apr-14 00:00N 32°08' W 081°08'0 0.2
2018-Apr-13 23:30N 32°08' W 081°08'1 1.1
2018-Apr-13 23:01N 32°07' W 081°08'2 4.4
2018-Apr-13 22:30N 32°06' W 081°06'0 0.9
2018-Apr-13 22:00N 32°05' W 081°06'0 0.0
2018-Apr-13 21:27N 32°05' W 081°06'0 0.4
2018-Apr-13 20:58N 32°05' W 081°06'1 2.0
2018-Apr-13 20:30N 32°06' W 081°07'2 4.8
2018-Apr-13 20:00N 32°08' W 081°08'3 5.9
2018-Apr-13 19:30N 32°06' W 081°06'2 4.0
2018-Apr-13 19:00N 32°05' W 081°04'0 0.0
2018-Apr-13 18:30N 32°05' W 081°04'0 0.0
2018-Apr-13 18:00N 32°05' W 081°04'0 0.0
2018-Apr-13 17:30N 32°05' W 081°04'0 0.0
2018-Apr-13 17:00N 32°05' W 081°04'0 0.0
2018-Apr-13 16:30N 32°05' W 081°04'0 0.0
2018-Apr-13 16:00N 32°05' W 081°04'0 0.0
2018-Apr-13 15:30N 32°05' W 081°04'0 0.0
2018-Apr-13 15:00N 32°05' W 081°04'0 0.0
2018-Apr-13 14:30N 32°05' W 081°04'0 0.0
2018-Apr-13 14:00N 32°05' W 081°04'1 2.2
2018-Apr-13 13:30N 32°05' W 081°05'2 3.8
2018-Apr-13 13:00N 32°06' W 081°07'0 0.0
2018-Apr-13 12:29N 32°06' W 081°07'0 0.0
2018-Apr-13 12:00N 32°06' W 081°07'1 1.6
2018-Apr-13 11:30N 32°06' W 081°06'2 4.2
2018-Apr-13 11:00N 32°05' W 081°04'0 0.0
2018-Apr-13 10:30N 32°05' W 081°04'0 0.0
2018-Apr-13 10:00N 32°05' W 081°04'0 0.0
2018-Apr-13 09:30N 32°05' W 081°04'0 0.0
2018-Apr-13 09:00N 32°05' W 081°04'0 0.0
2018-Apr-13 08:30N 32°05' W 081°04'0 0.0
2018-Apr-13 08:00N 32°05' W 081°04'0 0.0
2018-Apr-13 07:30N 32°05' W 081°04'0 0.0
2018-Apr-13 07:00N 32°05' W 081°04'0 0.0
2018-Apr-13 06:30N 32°05' W 081°04'0 0.0
2018-Apr-13 06:00N 32°05' W 081°04'0 0.0
2018-Apr-13 05:30N 32°05' W 081°04'0 0.0
2018-Apr-13 05:00N 32°05' W 081°04'0 0.0
2018-Apr-13 04:30N 32°05' W 081°04'2 3.9
2018-Apr-13 04:00N 32°06' W 081°06'2 3.2
2018-Apr-13 03:30N 32°07' W 081°07'2 3.1
2018-Apr-13 03:00N 32°06' W 081°06'3 5.6
2018-Apr-13 02:30N 32°05' W 081°03'0 0.1
2018-Apr-13 02:00N 32°05' W 081°03'1 1.9
2018-Apr-13 01:30N 32°05' W 081°04'0 0.0
2018-Apr-13 01:00N 32°05' W 081°04'0 0.0
2018-Apr-13 00:30N 32°05' W 081°04'0 0.0
2018-Apr-13 00:00N 32°05' W 081°04'0 0.3
2018-Apr-12 23:30N 32°05' W 081°04'0 0.3
2018-Apr-12 23:00N 32°05' W 081°04'0 0.0
2018-Apr-12 22:29N 32°05' W 081°04'0 1.0
2018-Apr-12 22:00N 32°05' W 081°04'4 8.9
2018-Apr-12 21:30N 32°08' W 081°08'0 0.6
2018-Apr-12 21:00N 32°08' W 081°08'1 1.1
2018-Apr-12 20:31N 32°08' W 081°08'2 3.4
2018-Apr-12 20:01N 32°06' W 081°07'3 5.0
2018-Apr-12 19:29N 32°05' W 081°04'0 0.9
2018-Apr-12 19:00N 32°05' W 081°04'0 0.0
2018-Apr-12 18:30N 32°05' W 081°04'0 0.0
2018-Apr-12 17:58N 32°05' W 081°04'0 0.0
2018-Apr-12 17:30N 32°05' W 081°04'0 0.0
2018-Apr-12 17:00N 32°05' W 081°04'0 0.0
2018-Apr-12 16:30N 32°05' W 081°04'0 0.0
2018-Apr-12 16:00N 32°05' W 081°04'0 0.0
2018-Apr-12 15:30N 32°05' W 081°04'0 0.0
2018-Apr-12 15:00N 32°05' W 081°04'0 0.0
2018-Apr-12 14:30N 32°05' W 081°04'  
Track history (hours):
 
Tides and Currents Weather Stations Pressure Air Temp Water Temp Dewpoint Dewpoint Depression Visibility Wind Speed Wind Dir Waves Ship Positions

Georgia

Owner: CRESCENT TOWING & SALVAGE CO INC, NEW ORLEANS, LA. More information available from US FCC via Universal Licensing System and Coast Guard Vessel Documentation Center.

Last reported at 2018-Apr-22 14:00 UTC. Time now 2018-Apr-22 14:13 UTC.
Position N 32°05' W 081°06'.

Length 30 m; draft 3.5 m.

Type: Tug. MMSI: 367368460.

Date/timePositionNaut miles runAvg speedWind from/ knotsBaromVisibWave heightAir tempDewpointWater temp
2018-Apr-22 14:00N 32°05' W 081°06'2 4.0
2018-Apr-22 13:30N 32°07' W 081°07'1 2.3
2018-Apr-22 13:00N 32°06' W 081°07'2 3.1
2018-Apr-22 12:30N 32°05' W 081°05'1 2.1
2018-Apr-22 12:00N 32°05' W 081°04'0 0.0
2018-Apr-22 11:30N 32°05' W 081°04'0 0.0
2018-Apr-22 11:00N 32°05' W 081°04'1 1.2
2018-Apr-22 10:30N 32°05' W 081°05'1 2.9
2018-Apr-22 10:00N 32°05' W 081°06'2 3.0
2018-Apr-22 09:30N 32°07' W 081°07'1 2.2
2018-Apr-22 09:00N 32°06' W 081°06'0 0.9
2018-Apr-22 08:30N 32°05' W 081°06'0 0.0
2018-Apr-22 08:00N 32°05' W 081°06'0 0.0
2018-Apr-22 07:30N 32°05' W 081°06'0 0.0
2018-Apr-22 07:00N 32°05' W 081°06'2 4.9
2018-Apr-22 06:30N 32°07' W 081°08'0 0.2
2018-Apr-22 06:00N 32°07' W 081°08'3 5.1
2018-Apr-22 05:30N 32°05' W 081°06'0 0.0
2018-Apr-22 05:00N 32°05' W 081°06'0 0.0
2018-Apr-22 04:30N 32°05' W 081°06'0 0.0
2018-Apr-22 04:00N 32°05' W 081°06'0 0.0
2018-Apr-22 03:30N 32°05' W 081°06'0 0.0
2018-Apr-22 03:00N 32°05' W 081°06'0 0.0
2018-Apr-22 02:30N 32°05' W 081°06'3 5.4
2018-Apr-22 01:59N 32°08' W 081°08'0 0.1
2018-Apr-22 01:30N 32°08' W 081°08'1 2.0
2018-Apr-22 01:01N 32°07' W 081°07'4 7.0
2018-Apr-22 00:30N 32°05' W 081°04'0 0.2
2018-Apr-22 00:00N 32°05' W 081°04'0 0.0
2018-Apr-21 23:30N 32°05' W 081°04'0 0.0
2018-Apr-21 23:01N 32°05' W 081°04'0 0.0
2018-Apr-21 22:30N 32°05' W 081°04'0 0.0
2018-Apr-21 22:00N 32°05' W 081°04'0 0.0
2018-Apr-21 21:30N 32°05' W 081°04'0 0.4
2018-Apr-21 21:00N 32°05' W 081°04'2 4.3
2018-Apr-21 20:30N 32°06' W 081°06'1 1.1
2018-Apr-21 20:00N 32°05' W 081°06'2 3.3
2018-Apr-21 19:30N 32°05' W 081°04'1 2.9
2018-Apr-21 19:00N 32°05' W 081°06'3 7.0
2018-Apr-21 18:31N 32°08' W 081°08'1 1.7
2018-Apr-21 18:00N 32°07' W 081°08'0 0.0
2018-Apr-21 17:30N 32°07' W 081°08'0 0.0
2018-Apr-21 17:00N 32°07' W 081°08'1 1.1
2018-Apr-21 16:30N 32°08' W 081°08'0 0.8
2018-Apr-21 16:00N 32°07' W 081°08'0 0.1
2018-Apr-21 15:30N 32°07' W 081°08'0 0.0
2018-Apr-21 14:58N 32°07' W 081°08'0 1.0
2018-Apr-21 14:30N 32°07' W 081°08'4 7.4
2018-Apr-21 14:00N 32°05' W 081°04'0 0.0
2018-Apr-21 13:31N 32°05' W 081°04'0 0.0
2018-Apr-21 13:00N 32°05' W 081°04'0 0.0
2018-Apr-21 12:30N 32°05' W 081°04'0 0.0
2018-Apr-21 12:00N 32°05' W 081°04'0 0.0
2018-Apr-21 11:30N 32°05' W 081°04'0 0.0
2018-Apr-21 11:00N 32°05' W 081°04'0 0.0
2018-Apr-21 10:31N 32°05' W 081°04'0 0.0
2018-Apr-21 10:01N 32°05' W 081°04'0 0.0
2018-Apr-21 09:30N 32°05' W 081°04'0 0.0
2018-Apr-21 09:00N 32°05' W 081°04'0 0.0
2018-Apr-21 08:30N 32°05' W 081°04'0 0.0
2018-Apr-21 08:00N 32°05' W 081°04'0 0.0
2018-Apr-21 07:30N 32°05' W 081°04'0 0.0
2018-Apr-21 07:00N 32°05' W 081°04'0 0.0
2018-Apr-21 06:30N 32°05' W 081°04'0 0.0
2018-Apr-21 06:00N 32°05' W 081°04'0 0.0
2018-Apr-21 05:30N 32°05' W 081°04'0 0.0
2018-Apr-21 05:00N 32°05' W 081°04'0 0.0
2018-Apr-21 04:30N 32°05' W 081°04'0 0.0
2018-Apr-21 04:00N 32°05' W 081°04'3 5.1
2018-Apr-21 03:30N 32°06' W 081°07'2 4.6
2018-Apr-21 02:58N 32°08' W 081°08'0 0.4
2018-Apr-21 02:30N 32°08' W 081°09'0 0.0
2018-Apr-21 02:00N 32°08' W 081°09'0 0.0
2018-Apr-21 01:28N 32°08' W 081°09'1 1.2
2018-Apr-21 01:00N 32°08' W 081°08'3 5.9
2018-Apr-21 00:30N 32°05' W 081°06'0 0.5
2018-Apr-21 00:00N 32°05' W 081°06'0 0.0
2018-Apr-20 23:31N 32°05' W 081°06'3 5.1
2018-Apr-20 23:00N 32°07' W 081°08'0 0.0
2018-Apr-20 22:30N 32°07' W 081°08'2 4.4
2018-Apr-20 22:00N 32°05' W 081°06'2 3.7
2018-Apr-20 21:31N 32°05' W 081°04'0 0.0
2018-Apr-20 21:00N 32°05' W 081°04'0 0.0
2018-Apr-20 20:30N 32°05' W 081°04'0 0.0
2018-Apr-20 20:00N 32°05' W 081°04'0 0.0
2018-Apr-20 19:31N 32°05' W 081°04'0 0.0
2018-Apr-20 19:00N 32°05' W 081°04'0 0.0
2018-Apr-20 18:30N 32°05' W 081°04'0 0.0
2018-Apr-20 18:00N 32°05' W 081°04'0 0.0
2018-Apr-20 17:31N 32°05' W 081°04'0 0.0
2018-Apr-20 17:00N 32°05' W 081°04'0 0.0
2018-Apr-20 16:30N 32°05' W 081°04'0 0.0
2018-Apr-20 16:00N 32°05' W 081°04'0 0.0
2018-Apr-20 15:30N 32°05' W 081°04'0 0.0
2018-Apr-20 15:00N 32°05' W 081°04'0 0.0
2018-Apr-20 14:30N 32°05' W 081°04'0 0.0
2018-Apr-20 14:00N 32°05' W 081°04'0 0.0
2018-Apr-20 13:30N 32°05' W 081°04'0 0.0
2018-Apr-20 13:00N 32°05' W 081°04'0 0.0
2018-Apr-20 12:30N 32°05' W 081°04'0 0.0
2018-Apr-20 12:00N 32°05' W 081°04'1 1.5
2018-Apr-20 11:30N 32°05' W 081°05'2 4.6
2018-Apr-20 11:00N 32°06' W 081°07'1 2.2
2018-Apr-20 10:30N 32°05' W 081°06'0 0.0
2018-Apr-20 10:00N 32°05' W 081°06'0 0.1
2018-Apr-20 09:30N 32°05' W 081°06'2 3.8
2018-Apr-20 09:00N 32°05' W 081°04'0 0.0
2018-Apr-20 08:30N 32°05' W 081°04'0 0.0
2018-Apr-20 08:00N 32°05' W 081°04'0 0.0
2018-Apr-20 07:30N 32°05' W 081°04'0 0.0
2018-Apr-20 07:00N 32°05' W 081°04'0 0.0
2018-Apr-20 06:30N 32°05' W 081°04'0 0.0
2018-Apr-20 06:00N 32°05' W 081°04'0 0.0
2018-Apr-20 05:30N 32°05' W 081°04'0 0.0
2018-Apr-20 05:00N 32°05' W 081°04'0 0.0
2018-Apr-20 04:28N 32°05' W 081°04'0 0.0
2018-Apr-20 04:00N 32°05' W 081°04'0 0.0
2018-Apr-20 03:30N 32°05' W 081°04'0 0.0
2018-Apr-20 03:00N 32°05' W 081°04'0 0.0
2018-Apr-20 02:30N 32°05' W 081°04'0 0.1
2018-Apr-20 02:00N 32°05' W 081°04'3 5.3
2018-Apr-20 01:30N 32°06' W 081°07'0 0.0
2018-Apr-20 01:00N 32°06' W 081°07'0 0.1
2018-Apr-20 00:30N 32°06' W 081°07'2 3.8
2018-Apr-20 00:00N 32°07' W 081°08'0 0.7
2018-Apr-19 23:30N 32°07' W 081°08'0 0.9
2018-Apr-19 23:00N 32°08' W 081°08'0 1.0
2018-Apr-19 22:30N 32°08' W 081°08'0 0.2
2018-Apr-19 22:00N 32°08' W 081°09'3 5.1
2018-Apr-19 21:30N 32°06' W 081°07'3 5.2
2018-Apr-19 21:00N 32°05' W 081°04'0 0.0
2018-Apr-19 20:30N 32°05' W 081°04'0 0.0
2018-Apr-19 20:00N 32°05' W 081°04'0 0.0
2018-Apr-19 19:30N 32°05' W 081°04'0 0.0
2018-Apr-19 19:00N 32°05' W 081°04'0 0.0
2018-Apr-19 18:30N 32°05' W 081°04'0 0.0
2018-Apr-19 18:00N 32°05' W 081°04'0 0.0
2018-Apr-19 17:30N 32°05' W 081°04'0 0.0
2018-Apr-19 17:00N 32°05' W 081°04'0 0.0
2018-Apr-19 16:30N 32°05' W 081°04'0 0.0
2018-Apr-19 16:00N 32°05' W 081°04'0 0.0
2018-Apr-19 15:30N 32°05' W 081°04'0 0.0
2018-Apr-19 15:00N 32°05' W 081°04'0 0.0
2018-Apr-19 14:30N 32°05' W 081°04'0 0.0
2018-Apr-19 14:00N 32°05' W 081°04'0 0.0
2018-Apr-19 13:29N 32°05' W 081°04'0 0.0
2018-Apr-19 12:52N 32°05' W 081°04'0 0.0
2018-Apr-19 12:30N 32°05' W 081°04'0 0.0
2018-Apr-19 12:00N 32°05' W 081°04'0 0.0
2018-Apr-19 11:30N 32°05' W 081°04'0 0.0
2018-Apr-19 11:00N 32°05' W 081°04'0 0.0
2018-Apr-19 10:30N 32°05' W 081°04'0 0.0
2018-Apr-19 10:00N 32°05' W 081°04'0 0.0
2018-Apr-19 09:31N 32°05' W 081°04'0 0.0
2018-Apr-19 09:00N 32°05' W 081°04'0 0.0
2018-Apr-19 08:30N 32°05' W 081°04'0 0.0
2018-Apr-19 08:00N 32°05' W 081°04'0 0.0
2018-Apr-19 07:30N 32°05' W 081°04'0 0.0
2018-Apr-19 07:00N 32°05' W 081°04'0 0.0
2018-Apr-19 06:30N 32°05' W 081°04'0 0.0
2018-Apr-19 06:00N 32°05' W 081°04'0 0.0
2018-Apr-19 05:30N 32°05' W 081°04'0 0.0
2018-Apr-19 04:59N 32°05' W 081°04'0 0.0
2018-Apr-19 04:29N 32°05' W 081°04'0 0.0
2018-Apr-19 03:58N 32°05' W 081°04'0 0.0
2018-Apr-19 03:30N 32°05' W 081°04'0 0.2
2018-Apr-19 03:00N 32°05' W 081°04'3 5.4
2018-Apr-19 02:31N 32°06' W 081°07'0 0.5
2018-Apr-19 02:00N 32°06' W 081°07'1 1.8
2018-Apr-19 01:30N 32°06' W 081°06'1 1.2
2018-Apr-19 01:00N 32°05' W 081°06'0 0.0
2018-Apr-19 00:30N 32°05' W 081°06'0 0.8
2018-Apr-18 23:59N 32°05' W 081°06'0 0.3
2018-Apr-18 23:30N 32°05' W 081°06'1 1.6
2018-Apr-18 23:00N 32°05' W 081°05'1 1.3
2018-Apr-18 22:30N 32°05' W 081°06'0 0.0
2018-Apr-18 22:01N 32°05' W 081°06'1 1.9
2018-Apr-18 21:30N 32°05' W 081°05'1 0.3
2018-Apr-18 18:07N 32°05' W 081°04'0 0.0
2018-Apr-18 18:00N 32°05' W 081°04'1 2.0
2018-Apr-18 17:30N 32°05' W 081°05'4 7.7
2018-Apr-18 17:00N 32°08' W 081°08'0 0.2
2018-Apr-18 16:30N 32°08' W 081°08'1 2.7
2018-Apr-18 16:00N 32°07' W 081°07'0 0.6
2018-Apr-18 15:30N 32°07' W 081°08'0 0.8
2018-Apr-18 15:00N 32°07' W 081°08'1 1.4
2018-Apr-18 14:30N 32°07' W 081°07'0 0.0
2018-Apr-18 14:00N 32°07' W 081°07'0 0.0
2018-Apr-18 13:30N 32°07' W 081°07'0 0.0
2018-Apr-18 13:00N 32°07' W 081°07'0 0.0
2018-Apr-18 12:30N 32°07' W 081°07'1 2.0
2018-Apr-18 12:00N 32°07' W 081°08'0 0.7
2018-Apr-18 11:30N 32°08' W 081°08'3 6.4
2018-Apr-18 11:00N 32°05' W 081°06'0 0.5
2018-Apr-18 10:30N 32°05' W 081°06'2 3.4
2018-Apr-18 10:00N 32°07' W 081°07'2 3.9
2018-Apr-18 09:30N 32°05' W 081°06'0 0.2
2018-Apr-18 09:00N 32°05' W 081°06'0 0.7
2018-Apr-18 08:30N 32°06' W 081°06'3 5.5
2018-Apr-18 08:00N 32°08' W 081°08'1 2.4
2018-Apr-18 07:30N 32°07' W 081°07'3 6.7
2018-Apr-18 07:00N 32°05' W 081°04'0 0.6
2018-Apr-18 06:30N 32°05' W 081°04'0 0.0
2018-Apr-18 06:00N 32°05' W 081°04'0 0.0
2018-Apr-18 05:30N 32°05' W 081°04'0 0.0
2018-Apr-18 05:00N 32°05' W 081°04'0 0.0
2018-Apr-18 04:30N 32°05' W 081°04'0 0.0
2018-Apr-18 04:00N 32°05' W 081°04'0 0.0
2018-Apr-18 03:30N 32°05' W 081°04'0 0.0
2018-Apr-18 02:51N 32°05' W 081°04'0 0.0
2018-Apr-18 02:30N 32°05' W 081°04'2 3.9
2018-Apr-18 02:00N 32°06' W 081°06'0 0.3
2018-Apr-18 01:30N 32°06' W 081°06'0 0.8
2018-Apr-18 01:00N 32°05' W 081°06'2 3.6
2018-Apr-18 00:30N 32°05' W 081°04'0 0.0
2018-Apr-18 00:00N 32°05' W 081°04'0 0.0
2018-Apr-17 23:30N 32°05' W 081°04'0 0.0
2018-Apr-17 23:00N 32°05' W 081°04'0 0.0
2018-Apr-17 22:30N 32°05' W 081°04'0 0.0
2018-Apr-17 22:00N 32°05' W 081°04'0 0.0
2018-Apr-17 21:30N 32°05' W 081°04'0 0.0
2018-Apr-17 21:00N 32°05' W 081°04'0 0.0
2018-Apr-17 20:30N 32°05' W 081°04'0 0.0
2018-Apr-17 20:00N 32°05' W 081°04'0 0.0
2018-Apr-17 19:30N 32°05' W 081°04'0 0.0
2018-Apr-17 19:00N 32°05' W 081°04'0 0.0
2018-Apr-17 18:30N 32°05' W 081°04'0 0.0
2018-Apr-17 18:00N 32°05' W 081°04'1 2.5
2018-Apr-17 17:30N 32°05' W 081°05'1 1.2
2018-Apr-17 17:00N 32°05' W 081°06'0 0.1
2018-Apr-17 16:30N 32°05' W 081°06'1 2.5
2018-Apr-17 16:00N 32°06' W 081°07'1 2.2
2018-Apr-17 15:29N 32°07' W 081°08'1 2.8
2018-Apr-17 15:00N 32°06' W 081°07'3 5.3
2018-Apr-17 14:28N 32°05' W 081°04'0 0.0
2018-Apr-17 14:00N 32°05' W 081°04'0 0.0
2018-Apr-17 13:30N 32°05' W 081°04'0 0.0
2018-Apr-17 13:00N 32°05' W 081°04'0 0.0
2018-Apr-17 12:30N 32°05' W 081°04'0 0.0
2018-Apr-17 12:00N 32°05' W 081°04'0 0.0
2018-Apr-17 11:30N 32°05' W 081°04'0 0.0
2018-Apr-17 11:00N 32°05' W 081°04'0 0.0
2018-Apr-17 10:30N 32°05' W 081°04'0 0.0
2018-Apr-17 10:00N 32°05' W 081°04'0 0.0
2018-Apr-17 09:30N 32°05' W 081°04'0 0.0
2018-Apr-17 09:00N 32°05' W 081°04'0 0.0
2018-Apr-17 08:30N 32°05' W 081°04'0 0.0
2018-Apr-17 08:00N 32°05' W 081°04'0 0.0
2018-Apr-17 07:30N 32°05' W 081°04'0 0.0
2018-Apr-17 07:00N 32°05' W 081°04'0 0.0
2018-Apr-17 06:30N 32°05' W 081°04'0 0.0
2018-Apr-17 06:00N 32°05' W 081°04'0 0.0
2018-Apr-17 05:30N 32°05' W 081°04'0 0.0
2018-Apr-17 05:00N 32°05' W 081°04'0 0.0
2018-Apr-17 04:30N 32°05' W 081°04'0 0.0
2018-Apr-17 04:00N 32°05' W 081°04'0 0.0
2018-Apr-17 03:30N 32°05' W 081°04'0 0.0
2018-Apr-17 03:00N 32°05' W 081°04'0 0.0
2018-Apr-17 02:30N 32°05' W 081°04'1 2.3
2018-Apr-17 02:00N 32°05' W 081°05'4 8.1
2018-Apr-17 01:30N 32°08' W 081°08'0 0.1
2018-Apr-17 01:00N 32°08' W 081°08'1 2.7
2018-Apr-17 00:30N 32°07' W 081°08'3 6.5
2018-Apr-17 00:00N 32°05' W 081°05'1 1.1
2018-Apr-16 23:30N 32°05' W 081°04'0 0.0
2018-Apr-16 23:00N 32°05' W 081°04'0 0.0
2018-Apr-16 22:30N 32°05' W 081°04'0 0.0
2018-Apr-16 22:00N 32°05' W 081°04'0 0.0
2018-Apr-16 21:30N 32°05' W 081°04'0 0.0
2018-Apr-16 21:00N 32°05' W 081°04'0 0.0
2018-Apr-16 20:30N 32°05' W 081°04'0 0.0
2018-Apr-16 20:00N 32°05' W 081°04'0 0.0
2018-Apr-16 19:30N 32°05' W 081°04'0 0.0
2018-Apr-16 19:00N 32°05' W 081°04'0 0.0
2018-Apr-16 18:30N 32°05' W 081°04'0 0.0
2018-Apr-16 18:00N 32°05' W 081°04'0 0.0
2018-Apr-16 17:30N 32°05' W 081°04'0 0.0
2018-Apr-16 17:00N 32°05' W 081°04'0 0.0
2018-Apr-16 16:30N 32°05' W 081°04'0 0.0
2018-Apr-16 15:59N 32°05' W 081°04'0 0.0
2018-Apr-16 15:30N 32°05' W 081°04'0 0.0
2018-Apr-16 15:00N 32°05' W 081°04'0 0.3
2018-Apr-16 14:31N 32°05' W 081°04'1 1.4
2018-Apr-16 13:57N 32°05' W 081°03'1 2.8
2018-Apr-16 13:30N 32°05' W 081°04'2 4.0
2018-Apr-16 13:00N 32°06' W 081°06'0 0.2
2018-Apr-16 12:30N 32°06' W 081°06'0 0.5
2018-Apr-16 12:00N 32°05' W 081°06'0 0.0
2018-Apr-16 11:21N 32°05' W 081°06'0 0.0
2018-Apr-16 10:58N 32°05' W 081°06'1 2.0
2018-Apr-16 10:27N 32°06' W 081°07'1 1.6
2018-Apr-16 10:00N 32°06' W 081°06'0 0.0
2018-Apr-16 09:31N 32°06' W 081°06'2 4.5
2018-Apr-16 09:00N 32°05' W 081°04'0 0.0
2018-Apr-16 08:30N 32°05' W 081°04'0 0.0
2018-Apr-16 08:00N 32°05' W 081°04'0 0.0
2018-Apr-16 07:30N 32°05' W 081°04'0 0.0
2018-Apr-16 07:00N 32°05' W 081°04'0 0.0
2018-Apr-16 06:28N 32°05' W 081°04'0 0.0
2018-Apr-16 06:00N 32°05' W 081°04'0 0.0
2018-Apr-16 05:30N 32°05' W 081°04'0 0.0
2018-Apr-16 05:00N 32°05' W 081°04'0 0.0
2018-Apr-16 04:30N 32°05' W 081°04'0 0.0
2018-Apr-16 03:59N 32°05' W 081°04'0 0.0
2018-Apr-16 03:30N 32°05' W 081°04'0 0.0
2018-Apr-16 03:00N 32°05' W 081°04'0 0.0
2018-Apr-16 02:30N 32°05' W 081°04'0 0.0
2018-Apr-16 02:00N 32°05' W 081°04'0 0.0
2018-Apr-16 01:30N 32°05' W 081°04'0 0.0
2018-Apr-16 01:00N 32°05' W 081°04'0 0.0
2018-Apr-16 00:28N 32°05' W 081°04'0 0.0
2018-Apr-16 00:00N 32°05' W 081°04'0 0.0
2018-Apr-15 23:30N 32°05' W 081°04'0 0.0
2018-Apr-15 23:00N 32°05' W 081°04'0 0.0
2018-Apr-15 22:30N 32°05' W 081°04'0 0.0
2018-Apr-15 22:00N 32°05' W 081°04'0 0.0
2018-Apr-15 21:31N 32°05' W 081°04'4 8.3
2018-Apr-15 21:01N 32°07' W 081°08'0 0.0
2018-Apr-15 20:30N 32°07' W 081°08'1 2.1
2018-Apr-15 20:00N 32°06' W 081°07'3 6.2
2018-Apr-15 19:30N 32°05' W 081°04'0 0.0
2018-Apr-15 19:00N 32°05' W 081°04'0 0.0
2018-Apr-15 18:30N 32°05' W 081°04'0 0.0
2018-Apr-15 18:00N 32°05' W 081°04'0 0.0
2018-Apr-15 17:30N 32°05' W 081°04'0 0.0
2018-Apr-15 17:00N 32°05' W 081°04'1 2.0
2018-Apr-15 16:30N 32°05' W 081°05'2 3.9
2018-Apr-15 16:00N 32°06' W 081°07'0 0.0
2018-Apr-15 15:30N 32°06' W 081°07'1 2.7
2018-Apr-15 15:00N 32°07' W 081°08'1 1.1
2018-Apr-15 14:31N 32°07' W 081°07'2 3.6
2018-Apr-15 14:00N 32°05' W 081°06'2 3.8
2018-Apr-15 13:30N 32°05' W 081°04'0 0.0
2018-Apr-15 13:00N 32°05' W 081°04'0 0.0
2018-Apr-15 12:30N 32°05' W 081°04'0 0.0
2018-Apr-15 12:00N 32°05' W 081°04'0 0.0
2018-Apr-15 11:30N 32°05' W 081°04'0 0.0
2018-Apr-15 10:54N 32°05' W 081°04'0 0.0
2018-Apr-15 10:30N 32°05' W 081°04'0 0.0
2018-Apr-15 10:00N 32°05' W 081°04'0 0.0
2018-Apr-15 09:29N 32°05' W 081°04'0 0.0
2018-Apr-15 09:00N 32°05' W 081°04'0 0.0
2018-Apr-15 08:30N 32°05' W 081°04'0 0.0
2018-Apr-15 08:00N 32°05' W 081°04'0 0.0
2018-Apr-15 07:30N 32°05' W 081°04'0 0.0
2018-Apr-15 07:00N 32°05' W 081°04'0 0.0
2018-Apr-15 06:30N 32°05' W 081°04'0 0.0
2018-Apr-15 06:00N 32°05' W 081°04'0 0.0
2018-Apr-15 05:30N 32°05' W 081°04'2 3.1
2018-Apr-15 05:00N 32°05' W 081°06'2 3.0
2018-Apr-15 04:30N 32°06' W 081°07'0 0.1
2018-Apr-15 04:00N 32°06' W 081°07'0 0.0
2018-Apr-15 03:30N 32°06' W 081°07'0 0.0
2018-Apr-15 03:00N 32°06' W 081°07'1 2.8
2018-Apr-15 02:30N 32°05' W 081°06'2 3.2
2018-Apr-15 02:00N 32°05' W 081°04'0 0.0
2018-Apr-15 01:30N 32°05' W 081°04'0 0.2
2018-Apr-15 01:00N 32°05' W 081°04'2 3.4
2018-Apr-15 00:30N 32°05' W 081°06'0 0.5
2018-Apr-15 00:00N 32°05' W 081°06'1 1.7
2018-Apr-14 23:31N 32°06' W 081°07'2 4.5
2018-Apr-14 23:00N 32°08' W 081°08'0 0.7
2018-Apr-14 22:30N 32°08' W 081°08'1 1.1
2018-Apr-14 22:00N 32°07' W 081°08'0 0.0
2018-Apr-14 21:30N 32°07' W 081°08'0 0.0
2018-Apr-14 21:00N 32°07' W 081°08'0 0.0
2018-Apr-14 20:30N 32°07' W 081°08'1 2.2
2018-Apr-14 20:00N 32°06' W 081°07'0 0.2
2018-Apr-14 19:30N 32°06' W 081°07'0 0.0
2018-Apr-14 18:58N 32°06' W 081°07'0 0.0
2018-Apr-14 18:29N 32°06' W 081°07'1 2.0
2018-Apr-14 18:00N 32°06' W 081°06'2 3.9
2018-Apr-14 17:30N 32°05' W 081°04'0 0.0
2018-Apr-14 17:00N 32°05' W 081°04'0 0.0
2018-Apr-14 16:30N 32°05' W 081°04'0 0.0
2018-Apr-14 16:00N 32°05' W 081°04'0 0.0
2018-Apr-14 15:30N 32°05' W 081°04'0 0.0
2018-Apr-14 15:00N 32°05' W 081°04'0 0.0
2018-Apr-14 14:30N 32°05' W 081°04'0 0.0
2018-Apr-14 14:00N 32°05' W 081°04'0 0.0
2018-Apr-14 13:30N 32°05' W 081°04'0 0.0
2018-Apr-14 13:00N 32°05' W 081°04'0 0.0
2018-Apr-14 12:30N 32°05' W 081°04'0 0.0
2018-Apr-14 12:00N 32°05' W 081°04'0 0.0
2018-Apr-14 11:30N 32°05' W 081°04'0 0.0
2018-Apr-14 11:00N 32°05' W 081°04'0 0.0
2018-Apr-14 10:30N 32°05' W 081°04'3 6.8
2018-Apr-14 10:00N 32°07' W 081°07'0 0.0
2018-Apr-14 09:30N 32°07' W 081°07'2 3.5
2018-Apr-14 09:00N 32°05' W 081°06'2 3.6
2018-Apr-14 08:30N 32°05' W 081°04'0 0.0
2018-Apr-14 07:59N 32°05' W 081°04'0 0.0
2018-Apr-14 07:30N 32°05' W 081°04'0 0.0
2018-Apr-14 07:00N 32°05' W 081°04'0 0.0
2018-Apr-14 06:30N 32°05' W 081°04'0 0.0
2018-Apr-14 06:00N 32°05' W 081°04'0 0.0
2018-Apr-14 05:30N 32°05' W 081°04'0 0.0
2018-Apr-14 04:59N 32°05' W 081°04'0 0.0
2018-Apr-14 04:30N 32°05' W 081°04'0 0.0
2018-Apr-14 04:00N 32°05' W 081°04'0 0.0
2018-Apr-14 03:30N 32°05' W 081°04'0 0.0
2018-Apr-14 03:00N 32°05' W 081°04'0 0.0
2018-Apr-14 02:30N 32°05' W 081°04'0 0.0
2018-Apr-14 02:00N 32°05' W 081°04'0 0.0
2018-Apr-14 01:30N 32°05' W 081°04'0 0.0
2018-Apr-14 01:00N 32°05' W 081°04'1 1.9
2018-Apr-14 00:30N 32°05' W 081°05'4 7.5
2018-Apr-14 00:00N 32°08' W 081°08'0 0.2
2018-Apr-13 23:30N 32°08' W 081°08'1 1.1
2018-Apr-13 23:01N 32°07' W 081°08'2 4.4
2018-Apr-13 22:30N 32°06' W 081°06'0 0.9
2018-Apr-13 22:00N 32°05' W 081°06'0 0.0
2018-Apr-13 21:27N 32°05' W 081°06'0 0.4
2018-Apr-13 20:58N 32°05' W 081°06'1 2.0
2018-Apr-13 20:30N 32°06' W 081°07'2 4.8
2018-Apr-13 20:00N 32°08' W 081°08'3 5.9
2018-Apr-13 19:30N 32°06' W 081°06'2 4.0
2018-Apr-13 19:00N 32°05' W 081°04'0 0.0
2018-Apr-13 18:30N 32°05' W 081°04'0 0.0
2018-Apr-13 18:00N 32°05' W 081°04'0 0.0
2018-Apr-13 17:30N 32°05' W 081°04'0 0.0
2018-Apr-13 17:00N 32°05' W 081°04'0 0.0
2018-Apr-13 16:30N 32°05' W 081°04'0 0.0
2018-Apr-13 16:00N 32°05' W 081°04'0 0.0
2018-Apr-13 15:30N 32°05' W 081°04'0 0.0
2018-Apr-13 15:00N 32°05' W 081°04'0 0.0
2018-Apr-13 14:30N 32°05' W 081°04'0 0.0
2018-Apr-13 14:00N 32°05' W 081°04'1 2.2
2018-Apr-13 13:30N 32°05' W 081°05'2 3.8
2018-Apr-13 13:00N 32°06' W 081°07'0 0.0
2018-Apr-13 12:29N 32°06' W 081°07'0 0.0
2018-Apr-13 12:00N 32°06' W 081°07'1 1.6
2018-Apr-13 11:30N 32°06' W 081°06'2 4.2
2018-Apr-13 11:00N 32°05' W 081°04'0 0.0
2018-Apr-13 10:30N 32°05' W 081°04'0 0.0
2018-Apr-13 10:00N 32°05' W 081°04'0 0.0
2018-Apr-13 09:30N 32°05' W 081°04'0 0.0
2018-Apr-13 09:00N 32°05' W 081°04'0 0.0
2018-Apr-13 08:30N 32°05' W 081°04'0 0.0
2018-Apr-13 08:00N 32°05' W 081°04'0 0.0
2018-Apr-13 07:30N 32°05' W 081°04'0 0.0
2018-Apr-13 07:00N 32°05' W 081°04'0 0.0
2018-Apr-13 06:30N 32°05' W 081°04'0 0.0
2018-Apr-13 06:00N 32°05' W 081°04'0 0.0
2018-Apr-13 05:30N 32°05' W 081°04'0 0.0
2018-Apr-13 05:00N 32°05' W 081°04'0 0.0
2018-Apr-13 04:30N 32°05' W 081°04'2 3.9
2018-Apr-13 04:00N 32°06' W 081°06'2 3.2
2018-Apr-13 03:30N 32°07' W 081°07'2 3.1
2018-Apr-13 03:00N 32°06' W 081°06'3 5.6
2018-Apr-13 02:30N 32°05' W 081°03'0 0.1
2018-Apr-13 02:00N 32°05' W 081°03'1 1.9
2018-Apr-13 01:30N 32°05' W 081°04'0 0.0
2018-Apr-13 01:00N 32°05' W 081°04'0 0.0
2018-Apr-13 00:30N 32°05' W 081°04'0 0.0
2018-Apr-13 00:00N 32°05' W 081°04'0 0.3
2018-Apr-12 23:30N 32°05' W 081°04'0 0.3
2018-Apr-12 23:00N 32°05' W 081°04'0 0.0
2018-Apr-12 22:29N 32°05' W 081°04'0 1.0
2018-Apr-12 22:00N 32°05' W 081°04'4 8.9
2018-Apr-12 21:30N 32°08' W 081°08'0 0.6
2018-Apr-12 21:00N 32°08' W 081°08'1 1.1
2018-Apr-12 20:31N 32°08' W 081°08'2 3.4
2018-Apr-12 20:01N 32°06' W 081°07'3 5.0
2018-Apr-12 19:29N 32°05' W 081°04'0 0.9
2018-Apr-12 19:00N 32°05' W 081°04'0 0.0
2018-Apr-12 18:30N 32°05' W 081°04'0 0.0
2018-Apr-12 17:58N 32°05' W 081°04'0 0.0
2018-Apr-12 17:30N 32°05' W 081°04'0 0.0
2018-Apr-12 17:00N 32°05' W 081°04'0 0.0
2018-Apr-12 16:30N 32°05' W 081°04'0 0.0
2018-Apr-12 16:00N 32°05' W 081°04'0 0.0
2018-Apr-12 15:30N 32°05' W 081°04'0 0.0
2018-Apr-12 15:00N 32°05' W 081°04'0 0.0
2018-Apr-12 14:30N 32°05' W 081°04'  

Dump ship's entire track history